sensor_id;sensor_type;location;lat;lon;timestamp;P1;durP1;ratioP1;P2;durP2;ratioP2
65387;SDS011;51992;53.528;49.474;2023-09-08T00:01:49;5.40;;;3.15;;
65387;SDS011;51992;53.528;49.474;2023-09-08T00:04:15;15.23;;;7.03;;
65387;SDS011;51992;53.528;49.474;2023-09-08T00:06:41;17.90;;;8.63;;
65387;SDS011;51992;53.528;49.474;2023-09-08T00:09:06;25.27;;;11.63;;
65387;SDS011;51992;53.528;49.474;2023-09-08T00:11:32;25.75;;;11.48;;
65387;SDS011;51992;53.528;49.474;2023-09-08T00:13:58;33.33;;;15.32;;
65387;SDS011;51992;53.528;49.474;2023-09-08T00:16:24;27.27;;;14.32;;
65387;SDS011;51992;53.528;49.474;2023-09-08T00:18:49;30.98;;;14.07;;
65387;SDS011;51992;53.528;49.474;2023-09-08T00:21:15;31.17;;;15.38;;
65387;SDS011;51992;53.528;49.474;2023-09-08T00:23:41;38.80;;;17.42;;
65387;SDS011;51992;53.528;49.474;2023-09-08T00:26:07;26.88;;;11.80;;
65387;SDS011;51992;53.528;49.474;2023-09-08T00:28:33;31.85;;;13.60;;
65387;SDS011;51992;53.528;49.474;2023-09-08T00:30:59;25.17;;;12.63;;
65387;SDS011;51992;53.528;49.474;2023-09-08T00:33:26;22.95;;;10.05;;
65387;SDS011;51992;53.528;49.474;2023-09-08T00:35:52;21.23;;;9.75;;
65387;SDS011;51992;53.528;49.474;2023-09-08T00:38:19;29.50;;;13.80;;
65387;SDS011;51992;53.528;49.474;2023-09-08T00:40:45;30.20;;;13.07;;
65387;SDS011;51992;53.528;49.474;2023-09-08T00:43:14;27.38;;;13.23;;
65387;SDS011;51992;53.528;49.474;2023-09-08T00:45:41;28.08;;;12.93;;
65387;SDS011;51992;53.528;49.474;2023-09-08T00:48:08;34.13;;;16.92;;
65387;SDS011;51992;53.528;49.474;2023-09-08T00:50:35;34.25;;;16.52;;
65387;SDS011;51992;53.528;49.474;2023-09-08T00:53:02;28.20;;;13.73;;
65387;SDS011;51992;53.528;49.474;2023-09-08T00:55:28;25.33;;;12.02;;
65387;SDS011;51992;53.528;49.474;2023-09-08T00:57:54;28.33;;;11.77;;
65387;SDS011;51992;53.528;49.474;2023-09-08T01:00:20;21.60;;;11.55;;
65387;SDS011;51992;53.528;49.474;2023-09-08T01:02:46;23.92;;;12.30;;
65387;SDS011;51992;53.528;49.474;2023-09-08T01:05:12;22.35;;;10.60;;
65387;SDS011;51992;53.528;49.474;2023-09-08T01:07:40;26.33;;;11.38;;
65387;SDS011;51992;53.528;49.474;2023-09-08T01:10:06;26.05;;;11.52;;
65387;SDS011;51992;53.528;49.474;2023-09-08T01:12:32;19.80;;;9.55;;
65387;SDS011;51992;53.528;49.474;2023-09-08T01:15:02;41.40;;;21.67;;
65387;SDS011;51992;53.528;49.474;2023-09-08T01:17:28;39.38;;;17.95;;
65387;SDS011;51992;53.528;49.474;2023-09-08T01:19:54;32.00;;;15.20;;
65387;SDS011;51992;53.528;49.474;2023-09-08T01:27:35;37.70;;;17.70;;
65387;SDS011;51992;53.528;49.474;2023-09-08T01:30:01;31.55;;;14.57;;
65387;SDS011;51992;53.528;49.474;2023-09-08T01:32:28;48.47;;;21.98;;
65387;SDS011;51992;53.528;49.474;2023-09-08T01:34:54;44.60;;;21.38;;
65387;SDS011;51992;53.528;49.474;2023-09-08T01:37:22;39.35;;;18.00;;
65387;SDS011;51992;53.528;49.474;2023-09-08T01:39:47;25.17;;;12.00;;
65387;SDS011;51992;53.528;49.474;2023-09-08T01:42:13;17.02;;;8.52;;
65387;SDS011;51992;53.528;49.474;2023-09-08T01:44:39;16.42;;;7.53;;
65387;SDS011;51992;53.528;49.474;2023-09-08T01:47:04;11.20;;;6.35;;
65387;SDS011;51992;53.528;49.474;2023-09-08T01:49:30;13.75;;;6.30;;
65387;SDS011;51992;53.528;49.474;2023-09-08T01:51:56;15.80;;;7.75;;
65387;SDS011;51992;53.528;49.474;2023-09-08T01:54:21;15.88;;;7.55;;
65387;SDS011;51992;53.528;49.474;2023-09-08T01:56:47;14.48;;;6.93;;
65387;SDS011;51992;53.528;49.474;2023-09-08T01:59:13;7.65;;;4.25;;
65387;SDS011;51992;53.528;49.474;2023-09-08T02:01:38;15.63;;;7.15;;
65387;SDS011;51992;53.528;49.474;2023-09-08T02:04:05;16.00;;;7.35;;
65387;SDS011;51992;53.528;49.474;2023-09-08T02:06:30;17.23;;;8.82;;
65387;SDS011;51992;53.528;49.474;2023-09-08T02:08:56;25.30;;;11.20;;
65387;SDS011;51992;53.528;49.474;2023-09-08T02:11:22;30.80;;;13.23;;
65387;SDS011;51992;53.528;49.474;2023-09-08T02:13:47;23.50;;;10.60;;
65387;SDS011;51992;53.528;49.474;2023-09-08T02:16:16;20.27;;;9.90;;
65387;SDS011;51992;53.528;49.474;2023-09-08T02:18:42;13.25;;;7.45;;
65387;SDS011;51992;53.528;49.474;2023-09-08T02:21:08;19.92;;;7.03;;
65387;SDS011;51992;53.528;49.474;2023-09-08T02:23:34;17.45;;;6.82;;
65387;SDS011;51992;53.528;49.474;2023-09-08T02:26:00;20.23;;;8.57;;
65387;SDS011;51992;53.528;49.474;2023-09-08T02:28:26;19.48;;;8.95;;
65387;SDS011;51992;53.528;49.474;2023-09-08T02:30:52;5.55;;;2.40;;
65387;SDS011;51992;53.528;49.474;2023-09-08T02:33:18;5.93;;;2.97;;
65387;SDS011;51992;53.528;49.474;2023-09-08T02:35:43;2.97;;;1.90;;
65387;SDS011;51992;53.528;49.474;2023-09-08T02:38:09;14.98;;;6.55;;
65387;SDS011;51992;53.528;49.474;2023-09-08T02:40:35;16.70;;;7.50;;
65387;SDS011;51992;53.528;49.474;2023-09-08T02:43:01;10.65;;;4.43;;
65387;SDS011;51992;53.528;49.474;2023-09-08T02:45:27;6.60;;;3.25;;
65387;SDS011;51992;53.528;49.474;2023-09-08T02:47:53;7.45;;;2.78;;
65387;SDS011;51992;53.528;49.474;2023-09-08T02:50:19;10.70;;;3.72;;
65387;SDS011;51992;53.528;49.474;2023-09-08T02:52:46;7.32;;;3.80;;
65387;SDS011;51992;53.528;49.474;2023-09-08T02:55:12;11.30;;;3.63;;
65387;SDS011;51992;53.528;49.474;2023-09-08T02:57:38;5.72;;;3.13;;
65387;SDS011;51992;53.528;49.474;2023-09-08T03:00:05;8.68;;;4.30;;
65387;SDS011;51992;53.528;49.474;2023-09-08T03:02:31;10.30;;;3.65;;
65387;SDS011;51992;53.528;49.474;2023-09-08T03:04:56;9.85;;;5.07;;
65387;SDS011;51992;53.528;49.474;2023-09-08T03:07:22;11.20;;;4.78;;
65387;SDS011;51992;53.528;49.474;2023-09-08T03:09:48;11.07;;;4.30;;
65387;SDS011;51992;53.528;49.474;2023-09-08T03:12:14;11.73;;;5.90;;
65387;SDS011;51992;53.528;49.474;2023-09-08T03:14:40;15.57;;;5.30;;
65387;SDS011;51992;53.528;49.474;2023-09-08T03:17:06;14.05;;;6.45;;
65387;SDS011;51992;53.528;49.474;2023-09-08T03:19:32;12.38;;;5.43;;
65387;SDS011;51992;53.528;49.474;2023-09-08T03:21:58;13.93;;;5.10;;
65387;SDS011;51992;53.528;49.474;2023-09-08T03:24:23;16.65;;;4.63;;
65387;SDS011;51992;53.528;49.474;2023-09-08T03:26:49;19.63;;;6.00;;
65387;SDS011;51992;53.528;49.474;2023-09-08T03:29:15;28.08;;;8.18;;
65387;SDS011;51992;53.528;49.474;2023-09-08T03:31:40;20.52;;;6.82;;
65387;SDS011;51992;53.528;49.474;2023-09-08T03:34:06;13.82;;;6.00;;
65387;SDS011;51992;53.528;49.474;2023-09-08T03:36:32;16.88;;;6.30;;
65387;SDS011;51992;53.528;49.474;2023-09-08T03:39:01;15.85;;;6.55;;
65387;SDS011;51992;53.528;49.474;2023-09-08T03:41:27;23.80;;;8.05;;
65387;SDS011;51992;53.528;49.474;2023-09-08T03:43:53;18.30;;;5.82;;
65387;SDS011;51992;53.528;49.474;2023-09-08T03:46:18;18.92;;;6.05;;
65387;SDS011;51992;53.528;49.474;2023-09-08T03:48:44;20.20;;;5.88;;
65387;SDS011;51992;53.528;49.474;2023-09-08T03:51:10;18.45;;;4.55;;
65387;SDS011;51992;53.528;49.474;2023-09-08T03:53:35;13.90;;;4.63;;
65387;SDS011;51992;53.528;49.474;2023-09-08T03:56:01;21.48;;;5.47;;
65387;SDS011;51992;53.528;49.474;2023-09-08T03:58:27;16.27;;;5.20;;
65387;SDS011;51992;53.528;49.474;2023-09-08T04:00:53;18.83;;;5.65;;
65387;SDS011;51992;53.528;49.474;2023-09-08T04:03:18;14.07;;;4.65;;
65387;SDS011;51992;53.528;49.474;2023-09-08T04:05:44;21.23;;;6.45;;
65387;SDS011;51992;53.528;49.474;2023-09-08T04:08:10;27.95;;;6.65;;
65387;SDS011;51992;53.528;49.474;2023-09-08T04:10:35;14.18;;;4.15;;
65387;SDS011;51992;53.528;49.474;2023-09-08T04:13:01;22.15;;;7.55;;
65387;SDS011;51992;53.528;49.474;2023-09-08T04:15:27;21.20;;;8.55;;
65387;SDS011;51992;53.528;49.474;2023-09-08T04:17:52;22.33;;;10.25;;
65387;SDS011;51992;53.528;49.474;2023-09-08T04:20:18;24.85;;;9.27;;
65387;SDS011;51992;53.528;49.474;2023-09-08T04:22:44;26.95;;;8.60;;
65387;SDS011;51992;53.528;49.474;2023-09-08T04:25:11;17.83;;;4.32;;
65387;SDS011;51992;53.528;49.474;2023-09-08T04:27:39;12.32;;;3.63;;
65387;SDS011;51992;53.528;49.474;2023-09-08T04:30:06;16.48;;;4.43;;
65387;SDS011;51992;53.528;49.474;2023-09-08T04:32:32;7.63;;;2.80;;
65387;SDS011;51992;53.528;49.474;2023-09-08T04:34:58;7.85;;;2.58;;
65387;SDS011;51992;53.528;49.474;2023-09-08T04:37:24;8.15;;;2.42;;
65387;SDS011;51992;53.528;49.474;2023-09-08T04:39:50;7.97;;;2.90;;
65387;SDS011;51992;53.528;49.474;2023-09-08T04:42:16;11.23;;;2.80;;
65387;SDS011;51992;53.528;49.474;2023-09-08T04:44:41;7.18;;;2.00;;
65387;SDS011;51992;53.528;49.474;2023-09-08T04:47:07;11.15;;;1.95;;
65387;SDS011;51992;53.528;49.474;2023-09-08T04:49:33;3.53;;;1.30;;
65387;SDS011;51992;53.528;49.474;2023-09-08T04:51:59;4.80;;;2.03;;
65387;SDS011;51992;53.528;49.474;2023-09-08T04:54:25;4.38;;;1.10;;
65387;SDS011;51992;53.528;49.474;2023-09-08T04:56:53;11.23;;;2.33;;
65387;SDS011;51992;53.528;49.474;2023-09-08T04:59:19;5.68;;;1.48;;
65387;SDS011;51992;53.528;49.474;2023-09-08T05:01:45;12.93;;;2.95;;
65387;SDS011;51992;53.528;49.474;2023-09-08T05:04:11;19.98;;;3.53;;
65387;SDS011;51992;53.528;49.474;2023-09-08T05:06:37;14.98;;;6.97;;
65387;SDS011;51992;53.528;49.474;2023-09-08T05:09:03;6.95;;;1.73;;
65387;SDS011;51992;53.528;49.474;2023-09-08T05:11:29;4.82;;;1.27;;
65387;SDS011;51992;53.528;49.474;2023-09-08T05:13:55;9.80;;;1.50;;
65387;SDS011;51992;53.528;49.474;2023-09-08T05:16:20;11.30;;;4.15;;
65387;SDS011;51992;53.528;49.474;2023-09-08T05:19:02;24.17;;;4.63;;
65387;SDS011;51992;53.528;49.474;2023-09-08T05:21:28;6.75;;;2.95;;
65387;SDS011;51992;53.528;49.474;2023-09-08T05:23:54;12.80;;;3.25;;
65387;SDS011;51992;53.528;49.474;2023-09-08T05:26:21;20.50;;;3.78;;
65387;SDS011;51992;53.528;49.474;2023-09-08T05:28:46;10.82;;;2.65;;
65387;SDS011;51992;53.528;49.474;2023-09-08T05:31:12;9.07;;;3.65;;
65387;SDS011;51992;53.528;49.474;2023-09-08T05:33:38;7.55;;;3.50;;
65387;SDS011;51992;53.528;49.474;2023-09-08T05:36:04;13.57;;;4.18;;
65387;SDS011;51992;53.528;49.474;2023-09-08T05:38:30;16.08;;;3.70;;
65387;SDS011;51992;53.528;49.474;2023-09-08T05:40:56;14.23;;;3.38;;
65387;SDS011;51992;53.528;49.474;2023-09-08T05:43:23;19.67;;;3.40;;
65387;SDS011;51992;53.528;49.474;2023-09-08T05:45:48;8.18;;;2.03;;
65387;SDS011;51992;53.528;49.474;2023-09-08T05:48:14;7.25;;;1.75;;
65387;SDS011;51992;53.528;49.474;2023-09-08T05:50:40;6.60;;;1.75;;
65387;SDS011;51992;53.528;49.474;2023-09-08T05:53:06;4.07;;;2.03;;
65387;SDS011;51992;53.528;49.474;2023-09-08T05:55:32;9.82;;;2.60;;
65387;SDS011;51992;53.528;49.474;2023-09-08T05:57:58;49.30;;;34.05;;
65387;SDS011;51992;53.528;49.474;2023-09-08T06:00:24;29.83;;;13.38;;
65387;SDS011;51992;53.528;49.474;2023-09-08T06:02:50;15.82;;;6.28;;
65387;SDS011;51992;53.528;49.474;2023-09-08T06:05:16;14.63;;;4.13;;
65387;SDS011;51992;53.528;49.474;2023-09-08T06:07:42;7.10;;;5.38;;
65387;SDS011;51992;53.528;49.474;2023-09-08T06:10:07;6.90;;;2.50;;
65387;SDS011;51992;53.528;49.474;2023-09-08T06:12:33;19.33;;;9.00;;
65387;SDS011;51992;53.528;49.474;2023-09-08T06:15:01;16.42;;;4.45;;
65387;SDS011;51992;53.528;49.474;2023-09-08T06:17:28;4.20;;;1.35;;
65387;SDS011;51992;53.528;49.474;2023-09-08T06:19:54;4.43;;;1.60;;
65387;SDS011;51992;53.528;49.474;2023-09-08T06:22:20;7.20;;;1.88;;
65387;SDS011;51992;53.528;49.474;2023-09-08T06:24:46;5.38;;;1.60;;
65387;SDS011;51992;53.528;49.474;2023-09-08T06:27:13;7.93;;;1.88;;
65387;SDS011;51992;53.528;49.474;2023-09-08T06:29:39;3.30;;;1.33;;
65387;SDS011;51992;53.528;49.474;2023-09-08T06:32:06;1.80;;;0.80;;
65387;SDS011;51992;53.528;49.474;2023-09-08T06:34:32;4.93;;;1.20;;
65387;SDS011;51992;53.528;49.474;2023-09-08T06:36:59;4.95;;;1.10;;
65387;SDS011;51992;53.528;49.474;2023-09-08T06:39:25;4.32;;;0.88;;
65387;SDS011;51992;53.528;49.474;2023-09-08T06:41:52;8.05;;;4.93;;
65387;SDS011;51992;53.528;49.474;2023-09-08T06:44:19;14.02;;;5.53;;
65387;SDS011;51992;53.528;49.474;2023-09-08T06:46:45;22.55;;;8.95;;
65387;SDS011;51992;53.528;49.474;2023-09-08T06:49:11;5.85;;;3.05;;
65387;SDS011;51992;53.528;49.474;2023-09-08T06:51:37;6.60;;;2.65;;
65387;SDS011;51992;53.528;49.474;2023-09-08T06:54:04;4.20;;;1.90;;
65387;SDS011;51992;53.528;49.474;2023-09-08T06:56:30;1.42;;;1.30;;
65387;SDS011;51992;53.528;49.474;2023-09-08T06:58:56;1.80;;;1.00;;
65387;SDS011;51992;53.528;49.474;2023-09-08T07:01:23;2.08;;;1.52;;
65387;SDS011;51992;53.528;49.474;2023-09-08T07:03:49;4.63;;;1.67;;
65387;SDS011;51992;53.528;49.474;2023-09-08T07:06:15;2.67;;;0.98;;
65387;SDS011;51992;53.528;49.474;2023-09-08T07:08:48;4.80;;;0.90;;
65387;SDS011;51992;53.528;49.474;2023-09-08T07:11:17;3.28;;;1.13;;
65387;SDS011;51992;53.528;49.474;2023-09-08T07:13:43;1.77;;;0.80;;
65387;SDS011;51992;53.528;49.474;2023-09-08T07:16:10;9.55;;;2.20;;
65387;SDS011;51992;53.528;49.474;2023-09-08T07:18:36;7.85;;;1.85;;
65387;SDS011;51992;53.528;49.474;2023-09-08T07:21:03;10.45;;;1.70;;
65387;SDS011;51992;53.528;49.474;2023-09-08T07:23:29;5.40;;;1.13;;
65387;SDS011;51992;53.528;49.474;2023-09-08T07:25:55;4.50;;;1.23;;
65387;SDS011;51992;53.528;49.474;2023-09-08T07:28:21;8.88;;;1.85;;
65387;SDS011;51992;53.528;49.474;2023-09-08T07:30:47;2.88;;;1.20;;
65387;SDS011;51992;53.528;49.474;2023-09-08T07:33:13;8.23;;;1.58;;
65387;SDS011;51992;53.528;49.474;2023-09-08T07:35:40;9.45;;;2.50;;
65387;SDS011;51992;53.528;49.474;2023-09-08T07:38:06;6.95;;;1.42;;
65387;SDS011;51992;53.528;49.474;2023-09-08T07:40:33;10.00;;;2.58;;
65387;SDS011;51992;53.528;49.474;2023-09-08T07:42:59;2.88;;;1.23;;
65387;SDS011;51992;53.528;49.474;2023-09-08T07:45:25;6.70;;;2.33;;
65387;SDS011;51992;53.528;49.474;2023-09-08T07:47:51;9.23;;;2.10;;
65387;SDS011;51992;53.528;49.474;2023-09-08T07:50:18;4.22;;;2.05;;
65387;SDS011;51992;53.528;49.474;2023-09-08T07:53:16;6.97;;;1.75;;
65387;SDS011;51992;53.528;49.474;2023-09-08T07:55:45;12.23;;;4.65;;
65387;SDS011;51992;53.528;49.474;2023-09-08T07:58:11;2.67;;;1.45;;
65387;SDS011;51992;53.528;49.474;2023-09-08T08:00:37;4.47;;;1.58;;
65387;SDS011;51992;53.528;49.474;2023-09-08T08:03:03;6.45;;;1.98;;
65387;SDS011;51992;53.528;49.474;2023-09-08T08:05:29;12.05;;;4.28;;
65387;SDS011;51992;53.528;49.474;2023-09-08T08:07:54;5.15;;;3.00;;
65387;SDS011;51992;53.528;49.474;2023-09-08T08:10:20;6.88;;;2.28;;
65387;SDS011;51992;53.528;49.474;2023-09-08T08:12:46;17.27;;;2.95;;
65387;SDS011;51992;53.528;49.474;2023-09-08T08:15:12;4.82;;;1.40;;
65387;SDS011;51992;53.528;49.474;2023-09-08T08:17:38;2.72;;;1.40;;
65387;SDS011;51992;53.528;49.474;2023-09-08T08:20:05;10.05;;;1.90;;
65387;SDS011;51992;53.528;49.474;2023-09-08T08:22:32;13.25;;;2.53;;
65387;SDS011;51992;53.528;49.474;2023-09-08T08:24:58;2.38;;;1.30;;
65387;SDS011;51992;53.528;49.474;2023-09-08T08:27:24;12.40;;;3.05;;
65387;SDS011;51992;53.528;49.474;2023-09-08T08:29:50;8.18;;;2.35;;
65387;SDS011;51992;53.528;49.474;2023-09-08T08:32:16;7.75;;;2.10;;
65387;SDS011;51992;53.528;49.474;2023-09-08T08:34:42;5.35;;;1.88;;
65387;SDS011;51992;53.528;49.474;2023-09-08T08:37:10;9.30;;;2.33;;
65387;SDS011;51992;53.528;49.474;2023-09-08T08:39:36;2.95;;;1.38;;
65387;SDS011;51992;53.528;49.474;2023-09-08T08:42:09;7.20;;;1.58;;
65387;SDS011;51992;53.528;49.474;2023-09-08T08:44:34;7.45;;;1.85;;
65387;SDS011;51992;53.528;49.474;2023-09-08T08:47:01;8.02;;;2.13;;
65387;SDS011;51992;53.528;49.474;2023-09-08T08:49:28;1.83;;;1.25;;
65387;SDS011;51992;53.528;49.474;2023-09-08T08:51:55;1.55;;;1.20;;
65387;SDS011;51992;53.528;49.474;2023-09-08T08:54:21;4.55;;;1.35;;
65387;SDS011;51992;53.528;49.474;2023-09-08T08:56:47;9.10;;;2.28;;
65387;SDS011;51992;53.528;49.474;2023-09-08T08:59:13;5.93;;;1.48;;
65387;SDS011;51992;53.528;49.474;2023-09-08T09:01:40;4.75;;;1.50;;
65387;SDS011;51992;53.528;49.474;2023-09-08T09:04:07;3.95;;;1.48;;
65387;SDS011;51992;53.528;49.474;2023-09-08T09:06:33;2.67;;;1.17;;
65387;SDS011;51992;53.528;49.474;2023-09-08T09:08:59;9.25;;;1.85;;
65387;SDS011;51992;53.528;49.474;2023-09-08T09:11:25;4.97;;;1.50;;
65387;SDS011;51992;53.528;49.474;2023-09-08T09:13:50;2.90;;;1.40;;
65387;SDS011;51992;53.528;49.474;2023-09-08T09:16:16;7.72;;;2.10;;
65387;SDS011;51992;53.528;49.474;2023-09-08T09:18:55;3.97;;;1.90;;
65387;SDS011;51992;53.528;49.474;2023-09-08T09:21:21;4.38;;;1.23;;
65387;SDS011;51992;53.528;49.474;2023-09-08T09:23:47;8.57;;;1.80;;
65387;SDS011;51992;53.528;49.474;2023-09-08T09:26:23;3.80;;;1.50;;
65387;SDS011;51992;53.528;49.474;2023-09-08T09:28:49;13.00;;;2.22;;
65387;SDS011;51992;53.528;49.474;2023-09-08T09:31:18;4.95;;;1.30;;
65387;SDS011;51992;53.528;49.474;2023-09-08T09:33:44;10.90;;;1.95;;
65387;SDS011;51992;53.528;49.474;2023-09-08T09:36:19;17.42;;;2.95;;
65387;SDS011;51992;53.528;49.474;2023-09-08T09:38:45;7.22;;;1.65;;
65387;SDS011;51992;53.528;49.474;2023-09-08T09:41:12;12.60;;;3.20;;
65387;SDS011;51992;53.528;49.474;2023-09-08T09:43:38;13.27;;;3.03;;
65387;SDS011;51992;53.528;49.474;2023-09-08T09:46:07;6.97;;;2.00;;
65387;SDS011;51992;53.528;49.474;2023-09-08T09:48:33;5.10;;;2.30;;
65387;SDS011;51992;53.528;49.474;2023-09-08T09:50:59;5.47;;;1.80;;
65387;SDS011;51992;53.528;49.474;2023-09-08T09:53:26;3.38;;;1.27;;
65387;SDS011;51992;53.528;49.474;2023-09-08T09:55:53;7.47;;;1.83;;
65387;SDS011;51992;53.528;49.474;2023-09-08T09:58:20;17.02;;;3.65;;
65387;SDS011;51992;53.528;49.474;2023-09-08T10:00:46;20.77;;;3.88;;
65387;SDS011;51992;53.528;49.474;2023-09-08T10:03:13;15.25;;;2.55;;
65387;SDS011;51992;53.528;49.474;2023-09-08T10:05:39;3.28;;;1.30;;
65387;SDS011;51992;53.528;49.474;2023-09-08T10:08:05;6.47;;;1.77;;
65387;SDS011;51992;53.528;49.474;2023-09-08T10:10:32;6.90;;;1.40;;
65387;SDS011;51992;53.528;49.474;2023-09-08T10:13:00;11.48;;;1.90;;
65387;SDS011;51992;53.528;49.474;2023-09-08T10:15:29;14.32;;;2.42;;
65387;SDS011;51992;53.528;49.474;2023-09-08T10:17:56;3.33;;;1.55;;
65387;SDS011;51992;53.528;49.474;2023-09-08T10:20:26;3.85;;;1.20;;
65387;SDS011;51992;53.528;49.474;2023-09-08T10:22:54;10.32;;;2.03;;
65387;SDS011;51992;53.528;49.474;2023-09-08T10:25:21;9.48;;;2.30;;
65387;SDS011;51992;53.528;49.474;2023-09-08T10:27:50;7.53;;;1.90;;
65387;SDS011;51992;53.528;49.474;2023-09-08T10:30:16;5.82;;;1.83;;
65387;SDS011;51992;53.528;49.474;2023-09-08T10:32:43;11.95;;;2.33;;
65387;SDS011;51992;53.528;49.474;2023-09-08T10:35:10;4.90;;;1.45;;
65387;SDS011;51992;53.528;49.474;2023-09-08T10:37:36;2.35;;;0.90;;
65387;SDS011;51992;53.528;49.474;2023-09-08T10:40:22;4.15;;;1.40;;
65387;SDS011;51992;53.528;49.474;2023-09-08T10:42:48;2.97;;;1.02;;
65387;SDS011;51992;53.528;49.474;2023-09-08T10:45:16;4.07;;;1.10;;
65387;SDS011;51992;53.528;49.474;2023-09-08T10:50:18;20.15;;;2.85;;
65387;SDS011;51992;53.528;49.474;2023-09-08T10:52:44;3.92;;;1.08;;
65387;SDS011;51992;53.528;49.474;2023-09-08T10:55:11;3.70;;;0.90;;
65387;SDS011;51992;53.528;49.474;2023-09-08T10:57:37;2.88;;;1.20;;
65387;SDS011;51992;53.528;49.474;2023-09-08T11:00:03;2.05;;;1.00;;
65387;SDS011;51992;53.528;49.474;2023-09-08T11:02:43;2.25;;;1.20;;
65387;SDS011;51992;53.528;49.474;2023-09-08T11:05:14;1.13;;;0.90;;
65387;SDS011;51992;53.528;49.474;2023-09-08T11:07:41;10.60;;;1.95;;
65387;SDS011;51992;53.528;49.474;2023-09-08T11:10:08;2.75;;;1.20;;
65387;SDS011;51992;53.528;49.474;2023-09-08T11:12:34;5.22;;;2.38;;
65387;SDS011;51992;53.528;49.474;2023-09-08T11:15:04;3.95;;;1.20;;
65387;SDS011;51992;53.528;49.474;2023-09-08T11:17:31;1.77;;;1.10;;
65387;SDS011;51992;53.528;49.474;2023-09-08T11:19:57;3.58;;;0.90;;
65387;SDS011;51992;53.528;49.474;2023-09-08T11:22:24;1.42;;;0.65;;
65387;SDS011;51992;53.528;49.474;2023-09-08T11:24:55;12.48;;;2.20;;
65387;SDS011;51992;53.528;49.474;2023-09-08T11:27:22;5.45;;;1.92;;
65387;SDS011;51992;53.528;49.474;2023-09-08T11:29:48;7.35;;;2.05;;
65387;SDS011;51992;53.528;49.474;2023-09-08T11:32:14;14.10;;;3.45;;
65387;SDS011;51992;53.528;49.474;2023-09-08T11:34:40;3.75;;;1.00;;
65387;SDS011;51992;53.528;49.474;2023-09-08T11:39:38;7.97;;;2.85;;
65387;SDS011;51992;53.528;49.474;2023-09-08T11:42:04;6.43;;;1.70;;
65387;SDS011;51992;53.528;49.474;2023-09-08T11:44:30;14.82;;;3.53;;
65387;SDS011;51992;53.528;49.474;2023-09-08T11:46:55;6.55;;;2.70;;
65387;SDS011;51992;53.528;49.474;2023-09-08T11:49:23;7.05;;;2.65;;
65387;SDS011;51992;53.528;49.474;2023-09-08T11:51:49;12.93;;;4.10;;
65387;SDS011;51992;53.528;49.474;2023-09-08T11:54:14;4.93;;;2.08;;
65387;SDS011;51992;53.528;49.474;2023-09-08T11:56:40;11.55;;;3.28;;
65387;SDS011;51992;53.528;49.474;2023-09-08T11:59:07;13.45;;;4.43;;
65387;SDS011;51992;53.528;49.474;2023-09-08T12:01:33;21.10;;;5.32;;
65387;SDS011;51992;53.528;49.474;2023-09-08T12:03:59;15.82;;;5.43;;
65387;SDS011;51992;53.528;49.474;2023-09-08T12:06:25;11.05;;;3.63;;
65387;SDS011;51992;53.528;49.474;2023-09-08T12:08:51;14.77;;;2.60;;
65387;SDS011;51992;53.528;49.474;2023-09-08T12:11:16;8.57;;;3.35;;
65387;SDS011;51992;53.528;49.474;2023-09-08T12:13:42;11.35;;;4.15;;
65387;SDS011;51992;53.528;49.474;2023-09-08T12:16:20;7.75;;;3.33;;
65387;SDS011;51992;53.528;49.474;2023-09-08T12:18:50;7.22;;;3.13;;
65387;SDS011;51992;53.528;49.474;2023-09-08T12:21:16;6.15;;;2.67;;
65387;SDS011;51992;53.528;49.474;2023-09-08T12:23:52;11.05;;;3.75;;
65387;SDS011;51992;53.528;49.474;2023-09-08T12:26:18;11.20;;;4.05;;
65387;SDS011;51992;53.528;49.474;2023-09-08T12:28:44;1.60;;;1.13;;
65387;SDS011;51992;53.528;49.474;2023-09-08T12:31:14;10.80;;;3.63;;
65387;SDS011;51992;53.528;49.474;2023-09-08T12:33:41;15.82;;;5.97;;
65387;SDS011;51992;53.528;49.474;2023-09-08T12:36:14;10.65;;;2.28;;
65387;SDS011;51992;53.528;49.474;2023-09-08T12:38:40;2.88;;;1.30;;
65387;SDS011;51992;53.528;49.474;2023-09-08T12:41:06;5.00;;;1.67;;
65387;SDS011;51992;53.528;49.474;2023-09-08T12:43:32;6.47;;;1.52;;
65387;SDS011;51992;53.528;49.474;2023-09-08T12:45:57;3.60;;;1.30;;
65387;SDS011;51992;53.528;49.474;2023-09-08T12:48:23;10.77;;;2.20;;
65387;SDS011;51992;53.528;49.474;2023-09-08T12:50:49;3.97;;;1.40;;
65387;SDS011;51992;53.528;49.474;2023-09-08T12:53:15;4.18;;;1.63;;
65387;SDS011;51992;53.528;49.474;2023-09-08T12:55:42;13.65;;;2.85;;
65387;SDS011;51992;53.528;49.474;2023-09-08T12:58:08;6.18;;;1.20;;
65387;SDS011;51992;53.528;49.474;2023-09-08T13:00:33;4.65;;;1.25;;
65387;SDS011;51992;53.528;49.474;2023-09-08T13:02:59;4.65;;;2.10;;
65387;SDS011;51992;53.528;49.474;2023-09-08T13:05:25;8.43;;;1.90;;
65387;SDS011;51992;53.528;49.474;2023-09-08T13:07:50;7.57;;;1.30;;
65387;SDS011;51992;53.528;49.474;2023-09-08T13:10:16;16.80;;;3.90;;
65387;SDS011;51992;53.528;49.474;2023-09-08T13:12:42;4.57;;;1.50;;
65387;SDS011;51992;53.528;49.474;2023-09-08T13:15:08;1.17;;;0.80;;
65387;SDS011;51992;53.528;49.474;2023-09-08T13:17:33;2.40;;;0.80;;
65387;SDS011;51992;53.528;49.474;2023-09-08T13:19:59;7.25;;;1.50;;
65387;SDS011;51992;53.528;49.474;2023-09-08T13:22:25;2.72;;;0.95;;
65387;SDS011;51992;53.528;49.474;2023-09-08T13:24:51;5.05;;;1.40;;
65387;SDS011;51992;53.528;49.474;2023-09-08T13:27:16;4.75;;;1.50;;
65387;SDS011;51992;53.528;49.474;2023-09-08T13:29:43;3.00;;;1.52;;
65387;SDS011;51992;53.528;49.474;2023-09-08T13:32:09;4.53;;;1.40;;
65387;SDS011;51992;53.528;49.474;2023-09-08T13:34:35;4.13;;;1.13;;
65387;SDS011;51992;53.528;49.474;2023-09-08T13:37:01;5.82;;;1.30;;
65387;SDS011;51992;53.528;49.474;2023-09-08T13:39:27;9.88;;;1.52;;
65387;SDS011;51992;53.528;49.474;2023-09-08T13:41:54;6.57;;;1.90;;
65387;SDS011;51992;53.528;49.474;2023-09-08T13:44:20;3.08;;;1.55;;
65387;SDS011;51992;53.528;49.474;2023-09-08T13:46:47;2.28;;;1.20;;
65387;SDS011;51992;53.528;49.474;2023-09-08T13:49:13;2.97;;;1.20;;
65387;SDS011;51992;53.528;49.474;2023-09-08T13:51:39;2.70;;;1.67;;
65387;SDS011;51992;53.528;49.474;2023-09-08T13:54:04;11.90;;;2.03;;
65387;SDS011;51992;53.528;49.474;2023-09-08T13:56:30;22.27;;;3.72;;
65387;SDS011;51992;53.528;49.474;2023-09-08T13:58:56;6.50;;;2.17;;
65387;SDS011;51992;53.528;49.474;2023-09-08T14:01:22;11.57;;;2.35;;
65387;SDS011;51992;53.528;49.474;2023-09-08T14:03:48;4.13;;;1.63;;
65387;SDS011;51992;53.528;49.474;2023-09-08T14:06:17;13.40;;;4.97;;
65387;SDS011;51992;53.528;49.474;2023-09-08T14:08:43;15.43;;;4.22;;
65387;SDS011;51992;53.528;49.474;2023-09-08T14:11:09;19.77;;;4.97;;
65387;SDS011;51992;53.528;49.474;2023-09-08T14:13:35;27.65;;;6.35;;
65387;SDS011;51992;53.528;49.474;2023-09-08T14:16:00;14.77;;;5.45;;
65387;SDS011;51992;53.528;49.474;2023-09-08T14:18:26;26.20;;;10.32;;
65387;SDS011;51992;53.528;49.474;2023-09-08T14:20:52;20.42;;;8.70;;
65387;SDS011;51992;53.528;49.474;2023-09-08T14:23:17;13.55;;;5.07;;
65387;SDS011;51992;53.528;49.474;2023-09-08T14:25:43;6.03;;;3.30;;
65387;SDS011;51992;53.528;49.474;2023-09-08T14:28:09;7.90;;;4.07;;
65387;SDS011;51992;53.528;49.474;2023-09-08T14:30:35;9.52;;;3.80;;
65387;SDS011;51992;53.528;49.474;2023-09-08T14:33:01;6.32;;;3.40;;